Aiea, HI (96701)

5:00 AM HST on October 23, 2014 (GMT -1000)
Honolulu International | Change Station
CLOSE
Current Station
Airport
Location: Honolulu,
Elevation: 16 ft
Nearby Weather Stations

Elev 16 ft 21.32 °N, 157.92 °W | Updated 7 minutes ago

Scattered Clouds
Scattered Clouds
75 °F
Feels Like 75 °F
N
5
Wind Variable Wind from NNW

Today
High -- | Low -- °F
--% Chance of Precip.
Yesterday
High -- | Low -- °F
Precip. -- in
6:30 AM 6:00 PM
Waning Crescent, 0% visible
Pressure 29.98 in
Visibility 10.0 miles
Clouds Few 3000 ft
Scattered Clouds 6000 ft
Dew Point 73 °F
Humidity 94%
Rainfall 0.00 in
Snow Depth Not available.
UV 0 out of 12
Pollen Not available.
Air Quality Not available.
Flu Activity Sporadic
METAR PHNL 231453Z 34004KT 10SM FEW030 SCT060 24/23 A2998 RMK AO2 SLP152 60000 T02390228 55000 $

More Conditions Fewer Conditions

Pressure 29.98 in
Visibility 10.0 miles
Clouds Few 3000 ft
Scattered Clouds 6000 ft
Dew Point 73 °F
Humidity 94%
Rainfall 0.00 in
Snow Depth Not available.
UV 0 out of 12
Pollen Not available.
Air Quality Not available.
Flu Activity Sporadic
METAR PHNL 231453Z 34004KT 10SM FEW030 SCT060 24/23 A2998 RMK AO2 SLP152 60000 T02390228 55000 $

More Conditions Fewer Conditions

10-Day Weather Forecast

Almanac

Astronomy

Oct. 23, 2014 Rise Set
Actual Time 6:30 AM HST 6:00 PM HST
Civil Twilight 6:08 AM HST 6:23 PM HST
Nautical Twilight 5:41 AM HST 6:49 PM HST
Astronomical Twilight 5:15 AM HST 7:15 PM HST
Moon 6:22 AM HST 6:10 PM HST
Length of Visible Light 12h 15m
Length of Day
11h 30m
Tomorrow will be 1m 8s shorter.
Waning Crescent, 0% of the Moon is Illuminated
Today
Waning Crescent
Oct 23
New
Oct 30
First Quarter
Nov 6
Full
Nov 14
Last Quarter

Today's Extremes

State Highs State Lows

Community

WunderPhotos

Upload Photos

1,764,272 photos uploaded!

WunderBlogs® & News

Nearby

Snow Depth

Station Depth Elevation
No new snow has been reported.

Earthquake Activity

City Distance Mag. Time & Date
No recent earthquake activity has been reported nearby.
Minimum magnitude displayed is 2.5.

Coastal Water Temperatures

Place Temperature
No Stations Reporting

Nearby Weather Stations